sensor_id;sensor_type;location;lat;lon;timestamp;pressure;altitude;pressure_sealevel;temperature;humidity
84944;BME280;75231;53.650;9.788;2024-03-02T00:01:21;100561.09;;;9.78;78.74
84944;BME280;75231;53.650;9.788;2024-03-02T00:03:47;100550.31;;;9.72;78.26
84944;BME280;75231;53.650;9.788;2024-03-02T00:06:19;100547.91;;;9.69;78.53
84944;BME280;75231;53.650;9.788;2024-03-02T00:08:45;100550.94;;;9.75;78.43
84944;BME280;75231;53.650;9.788;2024-03-02T00:11:11;100546.09;;;9.71;78.43
84944;BME280;75231;53.650;9.788;2024-03-02T00:13:39;100522.88;;;9.57;78.46
84944;BME280;75231;53.650;9.788;2024-03-02T00:16:04;100552.06;;;9.71;78.94
84944;BME280;75231;53.650;9.788;2024-03-02T00:18:32;100545.06;;;9.73;78.58
84944;BME280;75231;53.650;9.788;2024-03-02T00:21:05;100538.63;;;9.66;78.46
84944;BME280;75231;53.650;9.788;2024-03-02T00:23:32;100555.41;;;9.86;78.08
84944;BME280;75231;53.650;9.788;2024-03-02T00:25:58;100538.22;;;9.72;78.42
84944;BME280;75231;53.650;9.788;2024-03-02T00:28:35;100552.44;;;9.79;78.97
84944;BME280;75231;53.650;9.788;2024-03-02T00:31:09;100539.16;;;9.71;78.97
84944;BME280;75231;53.650;9.788;2024-03-02T00:33:45;100544.03;;;9.76;78.59
84944;BME280;75231;53.650;9.788;2024-03-02T00:36:15;100530.94;;;9.79;78.42
84944;BME280;75231;53.650;9.788;2024-03-02T00:38:48;100526.16;;;9.73;78.80
84944;BME280;75231;53.650;9.788;2024-03-02T00:41:38;100537.66;;;9.81;78.55
84944;BME280;75231;53.650;9.788;2024-03-02T00:44:06;100534.75;;;9.86;78.72
84944;BME280;75231;53.650;9.788;2024-03-02T00:46:37;100529.69;;;9.85;78.55
84944;BME280;75231;53.650;9.788;2024-03-02T00:49:05;100500.97;;;9.62;78.77
84944;BME280;75231;53.650;9.788;2024-03-02T00:51:32;100540.94;;;9.84;78.52
84944;BME280;75231;53.650;9.788;2024-03-02T00:54:00;100513.41;;;9.70;78.84
84944;BME280;75231;53.650;9.788;2024-03-02T00:56:29;100519.31;;;9.72;78.87
84944;BME280;75231;53.650;9.788;2024-03-02T00:58:54;100526.88;;;9.75;78.92
84944;BME280;75231;53.650;9.788;2024-03-02T01:01:20;100526.97;;;9.73;78.87
84944;BME280;75231;53.650;9.788;2024-03-02T01:03:45;100529.56;;;9.73;78.81
84944;BME280;75231;53.650;9.788;2024-03-02T01:06:11;100536.59;;;9.71;79.06
84944;BME280;75231;53.650;9.788;2024-03-02T01:08:39;100540.72;;;9.74;79.13
84944;BME280;75231;53.650;9.788;2024-03-02T01:11:04;100532.25;;;9.72;79.34
84944;BME280;75231;53.650;9.788;2024-03-02T01:13:30;100538.84;;;9.76;79.04
84944;BME280;75231;53.650;9.788;2024-03-02T01:15:56;100534.97;;;9.83;79.40
84944;BME280;75231;53.650;9.788;2024-03-02T01:18:22;100553.88;;;9.84;79.72
84944;BME280;75231;53.650;9.788;2024-03-02T01:20:47;100541.34;;;9.77;79.76
84944;BME280;75231;53.650;9.788;2024-03-02T01:23:13;100541.44;;;9.76;80.01
84944;BME280;75231;53.650;9.788;2024-03-02T01:25:38;100543.28;;;9.74;80.89
84944;BME280;75231;53.650;9.788;2024-03-02T01:28:04;100539.88;;;9.73;80.80
84944;BME280;75231;53.650;9.788;2024-03-02T01:30:30;100539.88;;;9.73;81.48
84944;BME280;75231;53.650;9.788;2024-03-02T01:36:20;100535.47;;;9.61;81.86
84944;BME280;75231;53.650;9.788;2024-03-02T01:38:46;100546.91;;;9.71;81.97
84944;BME280;75231;53.650;9.788;2024-03-02T01:41:13;100537.22;;;9.61;82.48
84944;BME280;75231;53.650;9.788;2024-03-02T01:43:39;100530.28;;;9.48;82.81
84944;BME280;75231;53.650;9.788;2024-03-02T01:46:04;100523.88;;;9.54;83.26
84944;BME280;75231;53.650;9.788;2024-03-02T01:48:29;100540.47;;;9.64;83.37
84944;BME280;75231;53.650;9.788;2024-03-02T01:50:55;100508.22;;;9.43;83.47
84944;BME280;75231;53.650;9.788;2024-03-02T01:53:20;100497.34;;;9.38;83.42
84944;BME280;75231;53.650;9.788;2024-03-02T01:55:45;100514.13;;;9.45;83.42
84944;BME280;75231;53.650;9.788;2024-03-02T01:58:13;100481.63;;;9.28;83.43
84944;BME280;75231;53.650;9.788;2024-03-02T02:00:39;100508.03;;;9.46;83.60
84944;BME280;75231;53.650;9.788;2024-03-02T02:03:04;100499.56;;;9.44;83.58
84944;BME280;75231;53.650;9.788;2024-03-02T02:05:30;100493.13;;;9.37;83.96
84944;BME280;75231;53.650;9.788;2024-03-02T02:07:56;100500.59;;;9.41;83.93
84944;BME280;75231;53.650;9.788;2024-03-02T02:10:24;100528.03;;;9.57;84.33
84944;BME280;75231;53.650;9.788;2024-03-02T02:12:49;100514.69;;;9.50;84.17
84944;BME280;75231;53.650;9.788;2024-03-02T02:15:28;100506.47;;;9.43;84.44
84944;BME280;75231;53.650;9.788;2024-03-02T02:17:58;100487.50;;;9.30;84.51
84944;BME280;75231;53.650;9.788;2024-03-02T02:20:24;100491.28;;;9.39;84.80
84944;BME280;75231;53.650;9.788;2024-03-02T02:23:04;100497.56;;;9.35;84.81
84944;BME280;75231;53.650;9.788;2024-03-02T02:25:44;100498.28;;;9.37;85.02
84944;BME280;75231;53.650;9.788;2024-03-02T02:28:09;100477.28;;;9.29;84.80
84944;BME280;75231;53.650;9.788;2024-03-02T02:30:35;100482.06;;;9.35;85.00
84944;BME280;75231;53.650;9.788;2024-03-02T02:33:00;100487.69;;;9.41;84.98
84944;BME280;75231;53.650;9.788;2024-03-02T02:35:25;100477.09;;;9.32;84.87
84944;BME280;75231;53.650;9.788;2024-03-02T02:37:51;100494.50;;;9.42;85.14
84944;BME280;75231;53.650;9.788;2024-03-02T02:40:17;100480.41;;;9.34;85.06
84944;BME280;75231;53.650;9.788;2024-03-02T02:42:44;100485.78;;;9.31;85.04
84944;BME280;75231;53.650;9.788;2024-03-02T02:45:09;100498.00;;;9.41;85.56
84944;BME280;75231;53.650;9.788;2024-03-02T02:47:36;100484.75;;;9.33;84.94
84944;BME280;75231;53.650;9.788;2024-03-02T02:50:02;100491.84;;;9.30;85.23
84944;BME280;75231;53.650;9.788;2024-03-02T02:52:35;100477.84;;;9.19;84.87
84944;BME280;75231;53.650;9.788;2024-03-02T02:55:03;100484.88;;;9.17;85.41
84944;BME280;75231;53.650;9.788;2024-03-02T02:57:28;100501.06;;;9.34;85.68
84944;BME280;75231;53.650;9.788;2024-03-02T02:59:59;100483.56;;;9.24;85.25
84944;BME280;75231;53.650;9.788;2024-03-02T03:02:27;100480.25;;;9.22;85.24
84944;BME280;75231;53.650;9.788;2024-03-02T03:04:53;100496.19;;;9.29;85.41
84944;BME280;75231;53.650;9.788;2024-03-02T03:07:18;100479.34;;;9.23;85.29
84944;BME280;75231;53.650;9.788;2024-03-02T03:09:43;100471.75;;;9.20;84.97
84944;BME280;75231;53.650;9.788;2024-03-02T03:12:09;100472.69;;;9.19;85.04
84944;BME280;75231;53.650;9.788;2024-03-02T03:14:34;100474.91;;;9.25;84.75
84944;BME280;75231;53.650;9.788;2024-03-02T03:16:59;100482.84;;;9.22;85.06
84944;BME280;75231;53.650;9.788;2024-03-02T03:19:31;100490.75;;;9.34;84.86
84944;BME280;75231;53.650;9.788;2024-03-02T03:21:56;100485.94;;;9.28;84.84
84944;BME280;75231;53.650;9.788;2024-03-02T03:24:22;100485.84;;;9.29;84.88
84944;BME280;75231;53.650;9.788;2024-03-02T03:26:47;100489.00;;;9.20;84.90
84944;BME280;75231;53.650;9.788;2024-03-02T03:29:12;100463.56;;;9.14;84.75
84944;BME280;75231;53.650;9.788;2024-03-02T03:31:37;100481.91;;;9.23;84.53
84944;BME280;75231;53.650;9.788;2024-03-02T03:34:03;100474.09;;;9.11;84.50
84944;BME280;75231;53.650;9.788;2024-03-02T03:36:28;100477.84;;;9.19;84.55
84944;BME280;75231;53.650;9.788;2024-03-02T03:38:53;100486.53;;;9.18;85.01
84944;BME280;75231;53.650;9.788;2024-03-02T03:41:19;100457.53;;;9.01;84.90
84944;BME280;75231;53.650;9.788;2024-03-02T03:43:44;100461.03;;;9.00;84.64
84944;BME280;75231;53.650;9.788;2024-03-02T03:46:09;100475.75;;;9.12;84.88
84944;BME280;75231;53.650;9.788;2024-03-02T03:48:35;100476.19;;;9.18;84.52
84944;BME280;75231;53.650;9.788;2024-03-02T03:51:00;100451.53;;;9.00;84.08
84944;BME280;75231;53.650;9.788;2024-03-02T03:53:26;100457.63;;;8.99;84.56
84944;BME280;75231;53.650;9.788;2024-03-02T03:55:51;100455.13;;;8.97;84.34
84944;BME280;75231;53.650;9.788;2024-03-02T03:58:16;100449.06;;;8.99;84.44
84944;BME280;75231;53.650;9.788;2024-03-02T04:00:43;100466.63;;;9.06;84.31
84944;BME280;75231;53.650;9.788;2024-03-02T04:03:09;100482.66;;;9.11;84.05
84944;BME280;75231;53.650;9.788;2024-03-02T04:05:34;100466.44;;;9.09;84.43
84944;BME280;75231;53.650;9.788;2024-03-02T04:07:59;100447.13;;;8.88;84.41
84944;BME280;75231;53.650;9.788;2024-03-02T04:10:25;100461.84;;;9.00;84.57
84944;BME280;75231;53.650;9.788;2024-03-02T04:12:51;100450.06;;;8.96;84.48
84944;BME280;75231;53.650;9.788;2024-03-02T04:15:16;100450.06;;;8.96;84.62
84944;BME280;75231;53.650;9.788;2024-03-02T04:17:43;100458.53;;;8.98;83.86
84944;BME280;75231;53.650;9.788;2024-03-02T04:20:09;100467.84;;;9.01;84.47
84944;BME280;75231;53.650;9.788;2024-03-02T04:22:35;100453.75;;;8.92;84.51
84944;BME280;75231;53.650;9.788;2024-03-02T04:25:01;100478.78;;;9.04;84.62
84944;BME280;75231;53.650;9.788;2024-03-02T04:27:26;100469.69;;;8.99;84.18
84944;BME280;75231;53.650;9.788;2024-03-02T04:29:52;100453.09;;;8.88;84.30
84944;BME280;75231;53.650;9.788;2024-03-02T04:32:17;100454.13;;;8.86;84.45
84944;BME280;75231;53.650;9.788;2024-03-02T04:34:44;100475.03;;;8.95;84.29
84944;BME280;75231;53.650;9.788;2024-03-02T04:37:11;100460.22;;;8.85;84.74
84944;BME280;75231;53.650;9.788;2024-03-02T04:39:37;100461.97;;;8.84;84.14
84944;BME280;75231;53.650;9.788;2024-03-02T04:42:03;100463.16;;;8.79;84.63
84944;BME280;75231;53.650;9.788;2024-03-02T04:44:28;100463.72;;;8.84;84.59
84944;BME280;75231;53.650;9.788;2024-03-02T04:46:53;100472.91;;;8.88;84.57
84944;BME280;75231;53.650;9.788;2024-03-02T04:49:19;100460.78;;;8.76;84.66
84944;BME280;75231;53.650;9.788;2024-03-02T04:51:44;100490.16;;;9.02;84.07
84944;BME280;75231;53.650;9.788;2024-03-02T04:54:09;100460.56;;;8.79;84.68
84944;BME280;75231;53.650;9.788;2024-03-02T04:56:35;100487.00;;;8.96;84.53
84944;BME280;75231;53.650;9.788;2024-03-02T04:59:10;100478.16;;;8.86;84.39
84944;BME280;75231;53.650;9.788;2024-03-02T05:01:36;100439.41;;;8.59;84.30
84944;BME280;75231;53.650;9.788;2024-03-02T05:04:01;100470.16;;;8.77;84.43
84944;BME280;75231;53.650;9.788;2024-03-02T05:06:27;100481.94;;;8.81;84.61
84944;BME280;75231;53.650;9.788;2024-03-02T05:08:52;100457.25;;;8.62;84.42
84944;BME280;75231;53.650;9.788;2024-03-02T05:11:17;100469.13;;;8.65;84.35
84944;BME280;75231;53.650;9.788;2024-03-02T05:14:01;100494.94;;;8.79;84.65
84944;BME280;75231;53.650;9.788;2024-03-02T05:16:26;100468.31;;;8.64;84.69
84944;BME280;75231;53.650;9.788;2024-03-02T05:18:52;100479.81;;;8.73;84.33
84944;BME280;75231;53.650;9.788;2024-03-02T05:21:17;100486.56;;;8.76;84.84
84944;BME280;75231;53.650;9.788;2024-03-02T05:23:43;100478.38;;;8.69;84.52
84944;BME280;75231;53.650;9.788;2024-03-02T05:26:09;100467.38;;;8.65;84.46
84944;BME280;75231;53.650;9.788;2024-03-02T05:28:38;100491.72;;;8.76;84.47
84944;BME280;75231;53.650;9.788;2024-03-02T05:31:03;100488.22;;;8.77;84.23
84944;BME280;75231;53.650;9.788;2024-03-02T05:33:28;100463.53;;;8.58;84.45
84944;BME280;75231;53.650;9.788;2024-03-02T05:35:56;100481.19;;;8.64;84.49
84944;BME280;75231;53.650;9.788;2024-03-02T05:38:22;100471.09;;;8.61;84.30
84944;BME280;75231;53.650;9.788;2024-03-02T05:40:47;100466.28;;;8.55;84.41
84944;BME280;75231;53.650;9.788;2024-03-02T05:43:15;100466.03;;;8.60;84.13
84944;BME280;75231;53.650;9.788;2024-03-02T05:45:40;100484.25;;;8.71;84.46
84944;BME280;75231;53.650;9.788;2024-03-02T05:48:09;100455.44;;;8.50;84.75
84944;BME280;75231;53.650;9.788;2024-03-02T05:50:34;100447.75;;;8.34;84.61
84944;BME280;75231;53.650;9.788;2024-03-02T05:53:00;100451.41;;;8.30;84.63
84944;BME280;75231;53.650;9.788;2024-03-02T05:55:25;100481.28;;;8.49;84.92
84944;BME280;75231;53.650;9.788;2024-03-02T05:57:50;100459.34;;;8.27;85.07
84944;BME280;75231;53.650;9.788;2024-03-02T06:00:31;100447.97;;;8.16;84.98
84944;BME280;75231;53.650;9.788;2024-03-02T06:02:57;100472.47;;;8.23;85.83
84944;BME280;75231;53.650;9.788;2024-03-02T06:05:22;100496.78;;;8.33;85.21
84944;BME280;75231;53.650;9.788;2024-03-02T06:07:48;100462.78;;;8.12;85.43
84944;BME280;75231;53.650;9.788;2024-03-02T06:10:13;100485.53;;;8.20;85.53
84944;BME280;75231;53.650;9.788;2024-03-02T06:12:39;100495.03;;;8.19;85.85
84944;BME280;75231;53.650;9.788;2024-03-02T06:15:05;100482.94;;;8.05;85.72
84944;BME280;75231;53.650;9.788;2024-03-02T06:17:30;100499.69;;;8.12;85.75
84944;BME280;75231;53.650;9.788;2024-03-02T06:19:56;100484.81;;;8.02;86.02
84944;BME280;75231;53.650;9.788;2024-03-02T06:22:21;100493.03;;;8.08;85.99
84944;BME280;75231;53.650;9.788;2024-03-02T06:24:48;100490.56;;;8.07;86.03
84944;BME280;75231;53.650;9.788;2024-03-02T06:27:14;100475.53;;;7.99;85.93
84944;BME280;75231;53.650;9.788;2024-03-02T06:29:39;100461.00;;;7.98;85.60
84944;BME280;75231;53.650;9.788;2024-03-02T06:32:04;100490.31;;;8.26;85.09
84944;BME280;75231;53.650;9.788;2024-03-02T06:34:30;100487.75;;;8.26;85.25
84944;BME280;75231;53.650;9.788;2024-03-02T06:36:58;100474.47;;;8.18;84.71
84944;BME280;75231;53.650;9.788;2024-03-02T06:39:23;100479.19;;;8.25;85.21
84944;BME280;75231;53.650;9.788;2024-03-02T06:41:49;100477.53;;;8.24;85.24
84944;BME280;75231;53.650;9.788;2024-03-02T06:44:14;100489.06;;;8.33;84.92
84944;BME280;75231;53.650;9.788;2024-03-02T06:46:49;100477.69;;;8.37;84.68
84944;BME280;75231;53.650;9.788;2024-03-02T06:49:15;100483.66;;;8.37;84.57
84944;BME280;75231;53.650;9.788;2024-03-02T06:51:42;100491.59;;;8.49;84.25
84944;BME280;75231;53.650;9.788;2024-03-02T06:54:07;100489.84;;;8.49;84.15
84944;BME280;75231;53.650;9.788;2024-03-02T06:56:33;100487.84;;;8.54;84.27
84944;BME280;75231;53.650;9.788;2024-03-02T06:58:58;100512.91;;;8.66;83.89
84944;BME280;75231;53.650;9.788;2024-03-02T07:01:23;100514.81;;;8.63;83.73
84944;BME280;75231;53.650;9.788;2024-03-02T07:03:51;100522.00;;;8.72;83.53
84944;BME280;75231;53.650;9.788;2024-03-02T07:06:16;100538.88;;;8.78;83.43
84944;BME280;75231;53.650;9.788;2024-03-02T07:08:41;100517.69;;;8.73;83.60
84944;BME280;75231;53.650;9.788;2024-03-02T07:11:07;100523.22;;;8.81;83.13
84944;BME280;75231;53.650;9.788;2024-03-02T07:13:32;100533.38;;;8.84;83.11
84944;BME280;75231;53.650;9.788;2024-03-02T07:15:57;100520.25;;;8.73;83.48
84944;BME280;75231;53.650;9.788;2024-03-02T07:18:31;100533.72;;;8.78;83.94
84944;BME280;75231;53.650;9.788;2024-03-02T07:20:57;100525.16;;;8.77;83.38
84944;BME280;75231;53.650;9.788;2024-03-02T07:23:26;100518.59;;;8.72;83.32
84944;BME280;75231;53.650;9.788;2024-03-02T07:25:54;100536.31;;;8.92;82.79
84944;BME280;75231;53.650;9.788;2024-03-02T07:28:24;100519.72;;;8.82;82.31
84944;BME280;75231;53.650;9.788;2024-03-02T07:31:02;100521.56;;;8.80;82.72
84944;BME280;75231;53.650;9.788;2024-03-02T07:33:32;100532.97;;;8.90;82.70
84944;BME280;75231;53.650;9.788;2024-03-02T07:35:59;100543.66;;;8.98;82.66
84944;BME280;75231;53.650;9.788;2024-03-02T07:38:25;100519.16;;;8.77;83.06
84944;BME280;75231;53.650;9.788;2024-03-02T07:40:51;100548.28;;;8.93;83.07
84944;BME280;75231;53.650;9.788;2024-03-02T07:43:17;100533.53;;;8.81;82.34
84944;BME280;75231;53.650;9.788;2024-03-02T07:45:43;100552.91;;;9.02;82.64
84944;BME280;75231;53.650;9.788;2024-03-02T07:48:11;100544.78;;;8.94;83.01
84944;BME280;75231;53.650;9.788;2024-03-02T07:50:37;100553.16;;;8.97;83.13
84944;BME280;75231;53.650;9.788;2024-03-02T07:53:04;100547.47;;;8.92;82.78
84944;BME280;75231;53.650;9.788;2024-03-02T07:55:30;100553.34;;;8.94;82.93
84944;BME280;75231;53.650;9.788;2024-03-02T07:57:56;100558.16;;;9.01;82.75
84944;BME280;75231;53.650;9.788;2024-03-02T08:00:22;100556.94;;;9.06;82.06
84944;BME280;75231;53.650;9.788;2024-03-02T08:02:49;100561.00;;;9.10;81.90
84944;BME280;75231;53.650;9.788;2024-03-02T08:05:16;100565.72;;;9.18;82.01
84944;BME280;75231;53.650;9.788;2024-03-02T08:07:43;100568.75;;;9.24;81.84
84944;BME280;75231;53.650;9.788;2024-03-02T08:10:09;100551.25;;;9.15;81.90
84944;BME280;75231;53.650;9.788;2024-03-02T08:12:34;100569.38;;;9.28;82.13
84944;BME280;75231;53.650;9.788;2024-03-02T08:14:59;100557.31;;;9.29;81.42
84944;BME280;75231;53.650;9.788;2024-03-02T08:17:25;100574.63;;;9.41;80.95
84944;BME280;75231;53.650;9.788;2024-03-02T08:19:50;100562.00;;;9.36;80.81
84944;BME280;75231;53.650;9.788;2024-03-02T08:22:16;100566.59;;;9.45;80.92
84944;BME280;75231;53.650;9.788;2024-03-02T08:24:42;100573.03;;;9.52;80.35
84944;BME280;75231;53.650;9.788;2024-03-02T08:27:11;100574.69;;;9.53;80.43
84944;BME280;75231;53.650;9.788;2024-03-02T08:29:37;100585.31;;;9.63;80.76
84944;BME280;75231;53.650;9.788;2024-03-02T08:32:06;100581.53;;;9.55;81.32
84944;BME280;75231;53.650;9.788;2024-03-02T08:34:32;100578.97;;;9.55;80.10
84944;BME280;75231;53.650;9.788;2024-03-02T08:36:59;100571.13;;;9.56;80.55
84944;BME280;75231;53.650;9.788;2024-03-02T08:39:24;100598.03;;;9.66;81.31
84944;BME280;75231;53.650;9.788;2024-03-02T08:41:49;100580.69;;;9.54;80.87
84944;BME280;75231;53.650;9.788;2024-03-02T08:44:16;100570.19;;;9.43;79.78
84944;BME280;75231;53.650;9.788;2024-03-02T08:46:41;100574.53;;;9.57;80.58
84944;BME280;75231;53.650;9.788;2024-03-02T08:49:07;100589.59;;;9.77;80.42
84944;BME280;75231;53.650;9.788;2024-03-02T08:51:32;100587.66;;;9.80;80.03
84944;BME280;75231;53.650;9.788;2024-03-02T08:53:58;100566.09;;;9.67;78.75
84944;BME280;75231;53.650;9.788;2024-03-02T08:56:24;100570.69;;;9.76;78.91
84944;BME280;75231;53.650;9.788;2024-03-02T08:58:50;100575.91;;;9.89;78.13
84944;BME280;75231;53.650;9.788;2024-03-02T09:01:17;100582.88;;;10.01;78.50
84944;BME280;75231;53.650;9.788;2024-03-02T09:03:42;100571.22;;;10.08;77.88
84944;BME280;75231;53.650;9.788;2024-03-02T09:06:11;100576.63;;;10.18;78.76
84944;BME280;75231;53.650;9.788;2024-03-02T09:08:36;100601.34;;;10.36;77.68
84944;BME280;75231;53.650;9.788;2024-03-02T09:11:04;100591.19;;;10.33;76.47
84944;BME280;75231;53.650;9.788;2024-03-02T09:13:31;100586.94;;;10.32;76.40
84944;BME280;75231;53.650;9.788;2024-03-02T09:15:58;100586.16;;;10.45;77.64
84944;BME280;75231;53.650;9.788;2024-03-02T09:18:24;100600.69;;;10.60;76.51
84944;BME280;75231;53.650;9.788;2024-03-02T09:20:49;100594.25;;;10.53;75.77
84944;BME280;75231;53.650;9.788;2024-03-02T09:23:14;100596.31;;;10.73;75.36
84944;BME280;75231;53.650;9.788;2024-03-02T09:25:40;100591.91;;;10.75;76.03
84944;BME280;75231;53.650;9.788;2024-03-02T09:28:05;100579.28;;;10.83;74.88
84944;BME280;75231;53.650;9.788;2024-03-02T09:30:30;100593.56;;;11.02;73.54
84944;BME280;75231;53.650;9.788;2024-03-02T09:32:56;100585.91;;;11.00;74.53
84944;BME280;75231;53.650;9.788;2024-03-02T09:35:21;100602.88;;;11.17;74.66
84944;BME280;75231;53.650;9.788;2024-03-02T09:37:47;100596.03;;;11.16;74.17
84944;BME280;75231;53.650;9.788;2024-03-02T09:40:13;100600.59;;;11.25;73.15
84944;BME280;75231;53.650;9.788;2024-03-02T09:42:39;100604.63;;;11.29;73.77
84944;BME280;75231;53.650;9.788;2024-03-02T09:45:06;100597.34;;;11.47;73.04
84944;BME280;75231;53.650;9.788;2024-03-02T09:47:31;100591.25;;;11.48;72.49
84944;BME280;75231;53.650;9.788;2024-03-02T09:49:57;100603.00;;;11.65;72.08
84944;BME280;75231;53.650;9.788;2024-03-02T09:52:23;100591.19;;;11.61;71.75
84944;BME280;75231;53.650;9.788;2024-03-02T09:54:48;100588.28;;;11.65;71.99
84944;BME280;75231;53.650;9.788;2024-03-02T09:57:17;100589.91;;;11.79;70.90
84944;BME280;75231;53.650;9.788;2024-03-02T09:59:42;100584.41;;;11.84;70.43
84944;BME280;75231;53.650;9.788;2024-03-02T10:02:08;100571.25;;;11.74;70.00
84944;BME280;75231;53.650;9.788;2024-03-02T10:04:33;100585.41;;;11.94;70.44
84944;BME280;75231;53.650;9.788;2024-03-02T10:07:15;100589.56;;;11.96;69.60
84944;BME280;75231;53.650;9.788;2024-03-02T10:09:45;100580.50;;;12.02;69.24
84944;BME280;75231;53.650;9.788;2024-03-02T10:12:14;100570.03;;;12.03;68.63
84944;BME280;75231;53.650;9.788;2024-03-02T10:14:41;100564.50;;;12.08;68.79
84944;BME280;75231;53.650;9.788;2024-03-02T10:17:08;100590.16;;;12.24;69.19
84944;BME280;75231;53.650;9.788;2024-03-02T10:19:34;100585.19;;;12.21;68.90
84944;BME280;75231;53.650;9.788;2024-03-02T10:22:02;100600.97;;;12.18;67.57
84944;BME280;75231;53.650;9.788;2024-03-02T10:24:35;100583.03;;;12.15;67.58
84944;BME280;75231;53.650;9.788;2024-03-02T10:27:05;100589.28;;;12.36;67.95
84944;BME280;75231;53.650;9.788;2024-03-02T10:29:31;100589.41;;;12.46;67.38
84944;BME280;75231;53.650;9.788;2024-03-02T10:31:56;100581.41;;;12.49;67.90
84944;BME280;75231;53.650;9.788;2024-03-02T10:34:24;100590.25;;;12.57;66.66
84944;BME280;75231;53.650;9.788;2024-03-02T10:36:50;100595.50;;;12.69;67.31
84944;BME280;75231;53.650;9.788;2024-03-02T10:39:17;100577.16;;;12.59;68.22
84944;BME280;75231;53.650;9.788;2024-03-02T10:41:43;100596.22;;;12.71;66.94
84944;BME280;75231;53.650;9.788;2024-03-02T10:44:09;100606.97;;;12.88;66.73
84944;BME280;75231;53.650;9.788;2024-03-02T10:46:38;100603.69;;;12.86;66.22
84944;BME280;75231;53.650;9.788;2024-03-02T10:49:05;100598.03;;;12.93;65.89
84944;BME280;75231;53.650;9.788;2024-03-02T10:51:33;100595.78;;;13.10;66.37
84944;BME280;75231;53.650;9.788;2024-03-02T10:53:59;100587.63;;;13.15;63.59
84944;BME280;75231;53.650;9.788;2024-03-02T10:57:02;100601.59;;;13.36;64.22
84944;BME280;75231;53.650;9.788;2024-03-02T10:59:33;100598.66;;;13.41;64.04
84944;BME280;75231;53.650;9.788;2024-03-02T11:02:00;100601.25;;;13.30;63.09
84944;BME280;75231;53.650;9.788;2024-03-02T11:04:31;100588.03;;;13.33;63.92
84944;BME280;75231;53.650;9.788;2024-03-02T11:07:02;100596.41;;;13.36;62.99
84944;BME280;75231;53.650;9.788;2024-03-02T11:09:29;100609.06;;;13.41;63.67
84944;BME280;75231;53.650;9.788;2024-03-02T11:12:19;100595.34;;;13.39;62.92
84944;BME280;75231;53.650;9.788;2024-03-02T11:14:48;100612.69;;;13.61;63.74
84944;BME280;75231;53.650;9.788;2024-03-02T11:17:16;100615.66;;;13.56;62.81
84944;BME280;75231;53.650;9.788;2024-03-02T11:19:42;100595.56;;;13.58;62.41
84944;BME280;75231;53.650;9.788;2024-03-02T11:22:08;100604.56;;;13.65;63.18
84944;BME280;75231;53.650;9.788;2024-03-02T11:24:34;100617.78;;;13.62;61.80
84944;BME280;75231;53.650;9.788;2024-03-02T11:27:01;100627.56;;;13.81;63.46
84944;BME280;75231;53.650;9.788;2024-03-02T11:32:25;100611.09;;;13.92;63.00
84944;BME280;75231;53.650;9.788;2024-03-02T11:34:50;100614.19;;;13.86;61.64
84944;BME280;75231;53.650;9.788;2024-03-02T11:37:19;100620.00;;;13.89;63.16
84944;BME280;75231;53.650;9.788;2024-03-02T11:39:50;100593.69;;;13.71;61.13
84944;BME280;75231;53.650;9.788;2024-03-02T11:42:16;100615.19;;;13.74;61.88
84944;BME280;75231;53.650;9.788;2024-03-02T11:44:46;100617.25;;;13.91;61.82
84944;BME280;75231;53.650;9.788;2024-03-02T11:47:14;100608.50;;;13.92;61.35
84944;BME280;75231;53.650;9.788;2024-03-02T11:49:49;100608.03;;;13.87;60.12
84944;BME280;75231;53.650;9.788;2024-03-02T11:52:16;100612.53;;;13.96;61.42
84944;BME280;75231;53.650;9.788;2024-03-02T11:54:45;100617.44;;;14.10;60.62
84944;BME280;75231;53.650;9.788;2024-03-02T11:57:23;100619.09;;;14.11;60.14
84944;BME280;75231;53.650;9.788;2024-03-02T11:59:49;100620.25;;;14.18;59.90
84944;BME280;75231;53.650;9.788;2024-03-02T12:02:23;100613.78;;;14.02;59.39
84944;BME280;75231;53.650;9.788;2024-03-02T12:04:49;100615.03;;;14.18;59.97
84944;BME280;75231;53.650;9.788;2024-03-02T12:07:22;100600.19;;;14.09;60.07
84944;BME280;75231;53.650;9.788;2024-03-02T12:09:49;100600.34;;;14.28;59.14
84944;BME280;75231;53.650;9.788;2024-03-02T12:12:15;100610.78;;;14.28;60.03
84944;BME280;75231;53.650;9.788;2024-03-02T12:14:52;100615.97;;;14.28;60.14
84944;BME280;75231;53.650;9.788;2024-03-02T12:17:20;100609.84;;;14.18;60.88
84944;BME280;75231;53.650;9.788;2024-03-02T12:19:46;100609.59;;;14.21;60.61
84944;BME280;75231;53.650;9.788;2024-03-02T12:22:11;100609.09;;;14.27;58.99
84944;BME280;75231;53.650;9.788;2024-03-02T12:24:37;100602.75;;;14.20;60.06
84944;BME280;75231;53.650;9.788;2024-03-02T12:27:04;100591.19;;;14.13;60.63
84944;BME280;75231;53.650;9.788;2024-03-02T12:29:30;100600.16;;;14.20;59.89
84944;BME280;75231;53.650;9.788;2024-03-02T12:31:56;100586.88;;;14.23;59.03
84944;BME280;75231;53.650;9.788;2024-03-02T12:34:22;100595.56;;;14.13;58.98
84944;BME280;75231;53.650;9.788;2024-03-02T12:36:48;100583.94;;;14.17;59.64
84944;BME280;75231;53.650;9.788;2024-03-02T12:39:21;100581.22;;;14.18;58.23
84944;BME280;75231;53.650;9.788;2024-03-02T12:41:50;100579.13;;;14.12;59.23
84944;BME280;75231;53.650;9.788;2024-03-02T12:44:16;100585.84;;;14.15;59.57
84944;BME280;75231;53.650;9.788;2024-03-02T12:46:42;100590.03;;;14.27;59.98
84944;BME280;75231;53.650;9.788;2024-03-02T12:49:14;100583.53;;;14.33;59.75
84944;BME280;75231;53.650;9.788;2024-03-02T12:51:43;100582.84;;;14.31;59.31
84944;BME280;75231;53.650;9.788;2024-03-02T12:54:10;100579.28;;;14.32;58.58
84944;BME280;75231;53.650;9.788;2024-03-02T12:56:36;100573.50;;;14.28;58.98
84944;BME280;75231;53.650;9.788;2024-03-02T12:59:02;100589.19;;;14.38;59.36
84944;BME280;75231;53.650;9.788;2024-03-02T13:01:28;100584.75;;;14.28;58.05
84944;BME280;75231;53.650;9.788;2024-03-02T13:03:53;100575.97;;;14.30;59.21